createdAt,value
2018-09-12T00:00:56.923Z,10.97
2018-09-12T00:03:25.504Z,13.60
2018-09-12T00:05:54.754Z,16.10
2018-09-12T00:08:23.644Z,11.77
2018-09-12T00:10:52.232Z,22.20
2018-09-12T00:13:20.794Z,16.70
2018-09-12T00:15:49.487Z,14.00
2018-09-12T00:18:18.319Z,17.77
2018-09-12T00:20:46.876Z,14.43
2018-09-12T00:23:15.472Z,13.30
2018-09-12T00:25:44.072Z,17.53
2018-09-12T00:28:12.639Z,18.50
2018-09-12T00:30:41.611Z,17.03
2018-09-12T00:33:10.184Z,16.43
2018-09-12T00:35:38.791Z,18.53
2018-09-12T00:38:07.451Z,12.33
2018-09-12T00:40:36.075Z,16.80
2018-09-12T00:43:04.655Z,13.27
2018-09-12T00:45:33.342Z,20.37
2018-09-12T00:48:01.895Z,20.83
2018-09-12T00:50:30.450Z,16.30
2018-09-12T00:52:59.104Z,15.13
2018-09-12T00:55:27.667Z,15.73
2018-09-12T00:57:56.678Z,15.77
2018-09-12T01:00:25.263Z,18.90
2018-09-12T01:02:53.827Z,19.93
2018-09-12T01:05:22.388Z,14.37
2018-09-12T01:07:51.020Z,14.17
2018-09-12T01:10:19.568Z,19.13
2018-09-12T01:12:48.129Z,14.50
2018-09-12T01:15:16.915Z,12.90
2018-09-12T01:17:45.471Z,14.00
2018-09-12T01:20:14.033Z,17.70
2018-09-12T01:22:42.620Z,21.83
2018-09-12T01:25:11.196Z,18.60
2018-09-12T01:27:39.771Z,19.73
2018-09-12T01:30:10.903Z,14.57
2018-09-12T01:32:39.449Z,11.60
2018-09-12T01:35:08.039Z,13.00
2018-09-12T01:37:36.656Z,14.50
2018-09-12T01:40:05.255Z,21.63
2018-09-12T01:42:33.811Z,13.60
2018-09-12T01:45:02.473Z,13.07
2018-09-12T01:47:31.036Z,14.10
2018-09-12T01:49:59.599Z,20.53
2018-09-12T01:52:28.883Z,18.37
2018-09-12T01:54:57.427Z,14.63
2018-09-12T01:57:25.980Z,16.00
2018-09-12T01:59:54.657Z,14.47
2018-09-12T02:02:23.216Z,19.80
2018-09-12T02:04:51.766Z,16.07
2018-09-12T02:07:20.413Z,14.60
2018-09-12T02:09:48.985Z,20.90
2018-09-12T02:12:17.544Z,19.53
2018-09-12T02:14:46.207Z,19.93
2018-09-12T02:17:14.760Z,13.97
2018-09-12T02:19:43.316Z,18.93
2018-09-12T02:22:12.071Z,15.47
2018-09-12T02:24:41.001Z,17.50
2018-09-12T02:27:09.552Z,12.97
2018-09-12T02:29:38.159Z,14.43
2018-09-12T02:32:06.721Z,14.60
2018-09-12T02:34:35.280Z,13.63
2018-09-12T02:37:03.908Z,14.17
2018-09-12T02:39:32.463Z,16.63
2018-09-12T02:42:01.029Z,15.00
2018-09-12T02:44:29.852Z,15.00
2018-09-12T02:46:58.428Z,17.63
2018-09-12T02:49:26.984Z,14.93
2018-09-12T02:51:55.563Z,16.23
2018-09-12T02:54:24.115Z,16.80
2018-09-12T02:56:52.663Z,12.13
2018-09-12T02:59:21.576Z,16.43
2018-09-12T03:01:50.135Z,18.70
2018-09-12T03:04:18.723Z,17.03
2018-09-12T03:06:47.395Z,14.43
2018-09-12T03:09:15.956Z,14.87
2018-09-12T03:11:44.528Z,17.00
2018-09-12T03:14:14.911Z,16.60
2018-09-12T03:16:43.478Z,19.17
2018-09-12T03:19:12.032Z,18.03
2018-09-12T03:21:40.987Z,13.17
2018-09-12T03:24:09.919Z,14.27
2018-09-12T03:26:38.515Z,18.47
2018-09-12T03:29:07.136Z,14.73
2018-09-12T03:31:35.723Z,17.40
2018-09-12T03:34:04.290Z,21.03
2018-09-12T03:36:32.991Z,21.53
2018-09-12T03:39:01.554Z,17.77
2018-09-12T03:41:30.153Z,23.67
2018-09-12T03:43:58.728Z,21.17
2018-09-12T03:46:27.295Z,14.27
2018-09-12T03:48:55.906Z,19.60
2018-09-12T03:51:24.599Z,17.53
2018-09-12T03:53:53.149Z,23.67
2018-09-12T03:56:21.712Z,17.50
2018-09-12T03:58:50.297Z,15.50
2018-09-12T04:01:18.866Z,19.67
2018-09-12T04:03:47.479Z,19.10
2018-09-12T04:06:16.204Z,17.30
2018-09-12T04:08:44.756Z,17.13
2018-09-12T04:11:13.320Z,20.00
2018-09-12T04:13:41.928Z,20.90
2018-09-12T04:16:10.755Z,17.30
2018-09-12T04:18:39.307Z,16.60
2018-09-12T04:21:07.991Z,19.27
2018-09-12T04:23:36.544Z,16.17
2018-09-12T04:26:05.136Z,18.50
2018-09-12T04:28:33.720Z,15.23
2018-09-12T04:31:02.282Z,16.87
2018-09-12T04:33:30.830Z,14.67
2018-09-12T04:35:59.475Z,24.23
2018-09-12T04:38:28.059Z,16.00
2018-09-12T04:40:56.615Z,15.27
2018-09-12T04:43:25.407Z,13.47
2018-09-12T04:45:53.964Z,18.63
2018-09-12T04:48:22.552Z,25.47
2018-09-12T04:50:51.136Z,19.57
2018-09-12T04:53:19.727Z,17.50
2018-09-12T04:55:48.286Z,20.20
2018-09-12T04:58:17.207Z,17.83
2018-09-12T05:00:45.775Z,21.23
2018-09-12T05:03:14.399Z,16.43
2018-09-12T05:05:43.374Z,15.40
2018-09-12T05:08:11.941Z,25.53
2018-09-12T05:10:40.507Z,14.50
2018-09-12T05:13:09.083Z,26.77
2018-09-12T05:15:37.644Z,29.13
2018-09-12T05:18:06.240Z,18.67
2018-09-12T05:20:34.812Z,13.90
2018-09-12T05:23:03.377Z,18.63
2018-09-12T05:25:31.941Z,22.00
2018-09-12T05:28:00.596Z,20.70
2018-09-12T05:30:29.176Z,34.27
2018-09-12T05:32:57.731Z,18.87
2018-09-12T05:35:26.397Z,20.67
2018-09-12T05:37:54.977Z,17.90
2018-09-12T05:40:23.520Z,16.93
2018-09-12T05:42:52.179Z,18.47
2018-09-12T05:45:20.836Z,25.63
2018-09-12T05:47:49.382Z,16.83
2018-09-12T05:50:18.150Z,26.10
2018-09-12T05:52:46.639Z,23.10
2018-09-12T05:55:15.199Z,20.90
2018-09-12T05:57:44.596Z,17.60
2018-09-12T06:00:13.192Z,15.43
2018-09-12T06:02:41.767Z,22.10
2018-09-12T06:05:10.760Z,16.63
2018-09-12T06:07:39.316Z,16.00
2018-09-12T06:10:07.927Z,16.90
2018-09-12T06:12:36.617Z,27.97
2018-09-12T06:15:05.247Z,26.70
2018-09-12T06:17:33.803Z,22.83
2018-09-12T06:20:02.392Z,18.47
2018-09-12T06:22:30.951Z,18.43
2018-09-12T06:24:59.516Z,19.50
2018-09-12T06:27:28.172Z,18.03
2018-09-12T06:29:56.727Z,24.10
2018-09-12T06:32:25.720Z,18.80
2018-09-12T06:34:54.319Z,17.67
2018-09-12T06:37:22.884Z,13.17
2018-09-12T06:39:51.425Z,17.00
2018-09-12T06:42:20.072Z,14.90
2018-09-12T06:44:48.735Z,18.00
2018-09-12T06:47:17.203Z,17.63
2018-09-12T06:49:49.038Z,13.30
2018-09-12T06:52:20.096Z,14.50
2018-09-12T06:54:49.187Z,15.40
2018-09-12T06:57:17.787Z,22.30
2018-09-12T06:59:46.349Z,16.80
2018-09-12T07:02:14.929Z,17.60
2018-09-12T07:04:43.491Z,16.53
2018-09-12T07:07:12.063Z,19.80
2018-09-12T07:09:40.651Z,16.33
2018-09-12T07:12:09.218Z,13.40
2018-09-12T07:14:37.822Z,16.93
2018-09-12T07:17:07.000Z,14.10
2018-09-12T07:19:35.559Z,15.27
2018-09-12T07:22:04.548Z,15.83
2018-09-12T07:24:33.275Z,17.33
2018-09-12T07:27:01.780Z,14.00
2018-09-12T07:29:30.339Z,17.53
2018-09-12T07:31:59.247Z,11.50
2018-09-12T07:34:28.324Z,15.50
2018-09-12T07:36:56.979Z,12.47
2018-09-12T07:39:25.583Z,19.40
2018-09-12T07:41:54.191Z,10.80
2018-09-12T07:44:22.751Z,11.90
2018-09-12T07:46:51.352Z,12.80
2018-09-12T07:49:19.896Z,10.60
2018-09-12T07:51:48.447Z,16.23
2018-09-12T07:54:17.124Z,19.23
2018-09-12T07:56:45.731Z,14.90
2018-09-12T07:59:14.248Z,17.63
2018-09-12T08:01:42.904Z,16.37
2018-09-12T08:04:11.461Z,16.23
2018-09-12T08:06:40.016Z,8.33
2018-09-12T08:09:11.244Z,19.30
2018-09-12T08:11:39.954Z,14.00
2018-09-12T08:14:08.504Z,9.80
2018-09-12T08:16:37.091Z,16.23
2018-09-12T08:19:05.791Z,9.70
2018-09-12T08:21:34.323Z,17.53
2018-09-12T08:24:03.315Z,13.63
2018-09-12T08:26:31.868Z,17.90
2018-09-12T08:29:00.419Z,14.03
2018-09-12T08:31:29.012Z,16.00
2018-09-12T08:33:57.562Z,13.20
2018-09-12T08:36:26.168Z,10.73
2018-09-12T08:38:54.987Z,13.63
2018-09-12T08:41:24.115Z,9.77
2018-09-12T08:43:52.663Z,8.67
2018-09-12T08:46:21.247Z,10.70
2018-09-12T08:48:50.536Z,10.73
2018-09-12T08:51:19.111Z,13.13
2018-09-12T08:53:47.776Z,15.23
2018-09-12T08:56:17.288Z,8.37
2018-09-12T08:58:45.826Z,10.60
2018-09-12T09:01:14.649Z,9.87
2018-09-12T09:03:43.960Z,10.27
2018-09-12T09:06:12.540Z,10.17
2018-09-12T09:08:41.307Z,9.23
2018-09-12T09:11:09.933Z,10.20
2018-09-12T09:13:38.479Z,9.77
2018-09-12T09:16:07.143Z,8.63
2018-09-12T09:18:35.699Z,6.63
2018-09-12T09:21:04.259Z,7.33
2018-09-12T09:23:33.939Z,7.40
2018-09-12T09:26:02.504Z,10.90
2018-09-12T09:28:31.052Z,7.40
2018-09-12T09:31:00.919Z,7.50
2018-09-12T09:33:29.485Z,7.90
2018-09-12T09:35:58.156Z,14.33
2018-09-12T09:38:26.759Z,8.43
2018-09-12T09:40:55.307Z,7.47
2018-09-12T09:43:23.860Z,9.17
2018-09-12T09:45:52.550Z,6.53
2018-09-12T09:48:21.173Z,15.90
2018-09-12T09:50:49.700Z,12.17
2018-09-12T09:53:18.468Z,6.40
2018-09-12T09:55:47.024Z,5.80
2018-09-12T09:58:15.623Z,6.30
2018-09-12T10:00:49.603Z,7.90
2018-09-12T10:04:27.512Z,7.00
2018-09-12T10:07:00.156Z,7.03
2018-09-12T10:09:31.006Z,6.63
2018-09-12T10:12:00.858Z,10.90
2018-09-12T10:14:29.731Z,9.73
2018-09-12T10:16:58.286Z,12.50
2018-09-12T10:19:27.063Z,15.33
2018-09-12T10:21:55.611Z,6.93
2018-09-12T10:24:24.247Z,6.30
2018-09-12T10:26:52.802Z,6.20
2018-09-12T10:29:21.772Z,5.97
2018-09-12T10:31:50.395Z,6.13
2018-09-12T10:34:19.072Z,5.60
2018-09-12T10:36:48.058Z,6.03
2018-09-12T10:39:16.628Z,8.13
2018-09-12T10:41:45.240Z,6.93
2018-09-12T10:44:13.860Z,11.53
2018-09-12T10:46:42.404Z,7.10
2018-09-12T10:49:11.106Z,6.73
2018-09-12T10:51:39.640Z,6.40
2018-09-12T10:54:08.219Z,4.33
2018-09-12T10:56:37.159Z,3.60
2018-09-12T10:59:05.766Z,5.50
2018-09-12T11:01:34.295Z,4.53
2018-09-12T11:04:02.860Z,4.57
2018-09-12T11:06:31.395Z,3.73
2018-09-12T11:09:00.056Z,8.23
2018-09-12T11:11:28.632Z,5.20
2018-09-12T11:13:57.183Z,5.50
2018-09-12T11:16:25.764Z,5.27
2018-09-12T11:18:55.188Z,4.80
2018-09-12T11:21:23.737Z,7.53
2018-09-12T11:23:52.336Z,7.80
2018-09-12T11:26:20.943Z,6.03
2018-09-12T11:28:49.672Z,5.43
2018-09-12T11:31:18.211Z,6.33
2018-09-12T11:33:47.363Z,2.80
2018-09-12T11:36:16.055Z,3.23
2018-09-12T11:38:44.648Z,4.70
2018-09-12T11:41:13.315Z,4.67
2018-09-12T11:43:41.875Z,5.97
2018-09-12T11:46:10.896Z,7.53
2018-09-12T11:48:39.552Z,4.10
2018-09-12T11:51:08.123Z,5.10
2018-09-12T11:53:36.684Z,3.10
2018-09-12T11:56:05.367Z,10.37
2018-09-12T11:58:33.931Z,7.17
2018-09-12T12:01:02.483Z,9.00
2018-09-12T12:03:31.061Z,5.07
2018-09-12T12:05:59.651Z,5.33
2018-09-12T12:08:28.195Z,7.53
2018-09-12T12:10:56.784Z,3.50
2018-09-12T12:13:25.328Z,4.67
2018-09-12T12:15:53.875Z,4.57
2018-09-12T12:18:22.456Z,9.30
2018-09-12T12:20:51.006Z,4.97
2018-09-12T12:23:19.630Z,5.97
2018-09-12T12:25:48.212Z,7.50
2018-09-12T12:28:16.769Z,7.13
2018-09-12T12:30:45.324Z,4.60
2018-09-12T12:33:14.204Z,6.23
2018-09-12T12:35:42.768Z,7.23
2018-09-12T12:38:11.335Z,5.70
2018-09-12T12:40:40.035Z,5.60
2018-09-12T12:43:08.589Z,8.07
2018-09-12T12:45:37.137Z,7.10
2018-09-12T12:48:06.024Z,6.63
2018-09-12T12:50:34.576Z,8.83
2018-09-12T12:53:03.127Z,6.83
2018-09-12T12:55:31.804Z,4.50
2018-09-12T12:58:00.368Z,4.63
2018-09-12T13:00:29.372Z,10.93
2018-09-12T13:02:58.119Z,6.50
2018-09-12T13:05:26.720Z,8.70
2018-09-12T13:07:55.228Z,7.17
2018-09-12T13:10:23.891Z,7.40
2018-09-12T13:12:52.428Z,8.00
2018-09-12T13:15:20.988Z,8.27
2018-09-12T13:17:49.663Z,5.63
2018-09-12T13:20:18.237Z,6.70
2018-09-12T13:22:46.837Z,7.83
2018-09-12T13:25:15.508Z,7.77
2018-09-12T13:27:44.198Z,7.03
2018-09-12T13:30:13.540Z,4.83
2018-09-12T13:32:42.263Z,11.23
2018-09-12T13:35:10.928Z,6.93
2018-09-12T13:37:39.480Z,8.23
2018-09-12T13:40:08.096Z,7.10
2018-09-12T13:42:36.715Z,7.10
2018-09-12T13:45:05.354Z,4.90
2018-09-12T13:47:33.930Z,5.40
2018-09-12T13:50:02.503Z,9.73
2018-09-12T13:52:31.083Z,4.50
2018-09-12T13:54:59.771Z,5.93
2018-09-12T13:57:28.339Z,14.53
2018-09-12T13:59:56.883Z,4.60
2018-09-12T14:02:25.995Z,7.87
2018-09-12T14:04:54.991Z,5.10
2018-09-12T14:07:23.579Z,5.63
2018-09-12T14:09:52.159Z,11.20
2018-09-12T14:12:20.711Z,5.77
2018-09-12T14:14:49.274Z,6.07
2018-09-12T14:17:17.975Z,6.83
2018-09-12T14:19:46.536Z,10.90
2018-09-12T14:22:15.087Z,7.87
2018-09-12T14:24:43.875Z,13.53
2018-09-12T14:27:12.421Z,6.83
2018-09-12T14:29:40.979Z,6.50
2018-09-12T14:32:09.773Z,4.67
2018-09-12T14:34:38.283Z,8.73
2018-09-12T14:37:06.863Z,5.70
2018-09-12T14:39:35.557Z,6.17
2018-09-12T14:42:04.091Z,7.43
2018-09-12T14:44:32.656Z,5.97
2018-09-12T14:47:01.355Z,6.83
2018-09-12T14:49:29.899Z,7.87
2018-09-12T14:51:58.452Z,6.53
2018-09-12T14:54:27.145Z,8.27
2018-09-12T14:56:55.695Z,7.50
2018-09-12T14:59:24.256Z,16.90
2018-09-12T15:01:53.239Z,10.73
2018-09-12T15:04:21.835Z,5.60
2018-09-12T15:06:50.658Z,8.10
2018-09-12T15:09:19.268Z,13.47
2018-09-12T15:11:47.839Z,5.60
2018-09-12T15:14:16.412Z,10.10
2018-09-12T15:16:45.520Z,10.60
2018-09-12T15:19:14.160Z,7.03
2018-09-12T15:21:42.757Z,11.40
2018-09-12T15:24:11.364Z,9.50
2018-09-12T15:26:39.935Z,8.87
2018-09-12T15:29:08.655Z,8.93
2018-09-12T15:31:37.280Z,6.43
2018-09-12T15:34:05.883Z,27.10
2018-09-12T15:36:34.465Z,16.20
2018-09-12T15:39:03.212Z,11.43
2018-09-12T15:41:31.925Z,6.43
2018-09-12T15:44:00.374Z,13.20
2018-09-12T15:46:29.059Z,5.93
2018-09-12T15:48:57.636Z,8.20
2018-09-12T15:51:26.208Z,8.37
2018-09-12T15:53:55.269Z,7.10
2018-09-12T15:56:23.916Z,5.67
2018-09-12T15:58:52.475Z,7.83
2018-09-12T16:01:21.148Z,11.13
2018-09-12T16:03:49.770Z,8.80
2018-09-12T16:06:18.279Z,10.40
2018-09-12T16:08:46.947Z,7.50
2018-09-12T16:11:15.527Z,7.83
2018-09-12T16:13:44.080Z,5.53
2018-09-12T16:16:12.655Z,13.60
2018-09-12T16:18:41.207Z,11.90
2018-09-12T16:21:09.759Z,12.90
2018-09-12T16:23:38.367Z,10.33
2018-09-12T16:26:07.035Z,10.80
2018-09-12T16:28:35.588Z,8.80
2018-09-12T16:31:04.184Z,10.80
2018-09-12T16:33:32.743Z,9.83
2018-09-12T16:36:01.332Z,11.87
2018-09-12T16:38:30.023Z,7.83
2018-09-12T16:40:58.599Z,9.13
2018-09-12T16:43:27.183Z,7.47
2018-09-12T16:45:55.771Z,9.83
2018-09-12T16:48:24.327Z,16.53
2018-09-12T16:50:52.912Z,9.70
2018-09-12T16:53:21.495Z,7.70
2018-09-12T16:55:50.103Z,8.27
2018-09-12T16:58:18.671Z,9.03
2018-09-12T17:00:47.288Z,9.77
2018-09-12T17:03:15.831Z,8.57
2018-09-12T17:05:44.468Z,7.13
2018-09-12T17:08:13.060Z,9.53
2018-09-12T17:10:41.638Z,8.67
2018-09-12T17:13:10.191Z,8.07
2018-09-12T17:15:38.775Z,12.30
2018-09-12T17:18:07.352Z,6.83
2018-09-12T17:20:35.926Z,7.93
2018-09-12T17:23:04.559Z,8.50
2018-09-12T17:25:33.119Z,9.43
2018-09-12T17:28:01.678Z,11.10
2018-09-12T17:30:30.550Z,9.53
2018-09-12T17:32:59.220Z,13.73
2018-09-12T17:35:28.263Z,13.17
2018-09-12T17:37:56.987Z,12.03
2018-09-12T17:40:25.571Z,9.30
2018-09-12T17:42:54.156Z,10.70
2018-09-12T17:45:22.781Z,16.67
2018-09-12T17:47:51.435Z,12.50
2018-09-12T17:50:19.992Z,14.87
2018-09-12T17:52:48.946Z,14.60
2018-09-12T17:55:17.505Z,12.47
2018-09-12T17:57:46.076Z,14.03
2018-09-12T18:00:14.715Z,14.70
2018-09-12T18:02:43.283Z,15.13
2018-09-12T18:05:11.839Z,9.20
2018-09-12T18:07:40.527Z,16.20
2018-09-12T18:10:09.079Z,15.07
2018-09-12T18:12:37.649Z,17.73
2018-09-12T18:15:06.467Z,24.17
2018-09-12T18:17:35.045Z,14.90
2018-09-12T18:20:03.648Z,12.73
2018-09-12T18:22:32.240Z,19.00
2018-09-12T18:25:00.827Z,13.30
2018-09-12T18:27:29.451Z,13.03
2018-09-12T18:29:58.193Z,30.70
2018-09-12T18:32:26.795Z,15.90
2018-09-12T18:34:55.424Z,13.67
2018-09-12T18:37:24.111Z,13.47
2018-09-12T18:39:52.751Z,18.30
2018-09-12T18:42:21.294Z,25.03
2018-09-12T18:44:49.875Z,13.33
2018-09-12T18:47:18.679Z,19.03
2018-09-12T18:49:47.236Z,16.43
2018-09-12T18:52:15.833Z,20.87
2018-09-12T18:54:44.381Z,24.77
2018-09-12T18:57:12.947Z,15.70
2018-09-12T18:59:41.606Z,10.37
2018-09-12T19:02:10.164Z,19.27
2018-09-12T19:04:38.723Z,14.77
2018-09-12T19:07:08.016Z,14.07
2018-09-12T19:09:36.351Z,13.40
2018-09-12T19:12:04.919Z,14.57
2018-09-12T19:14:33.849Z,22.47
2018-09-12T19:17:02.408Z,10.33
2018-09-12T19:19:30.955Z,14.17
2018-09-12T19:21:59.559Z,15.90
2018-09-12T19:24:28.124Z,15.97
2018-09-12T19:26:56.696Z,15.73
2018-09-12T19:29:25.364Z,15.33
2018-09-12T19:31:53.908Z,15.80
2018-09-12T19:34:22.471Z,12.67
2018-09-12T19:36:51.060Z,17.00
2018-09-12T19:39:19.924Z,14.40
2018-09-12T19:41:48.592Z,12.57
2018-09-12T19:44:17.215Z,14.90
2018-09-12T19:46:45.763Z,26.37
2018-09-12T19:49:14.328Z,18.63
2018-09-12T19:51:42.939Z,9.87
2018-09-12T19:54:11.916Z,18.47
2018-09-12T19:56:40.455Z,11.87
2018-09-12T19:59:09.076Z,13.97
2018-09-12T20:01:37.624Z,12.20
2018-09-12T20:04:06.683Z,20.07
2018-09-12T20:06:35.402Z,16.00
2018-09-12T20:09:04.959Z,14.90
2018-09-12T20:11:33.604Z,14.27
2018-09-12T20:14:02.500Z,12.53
2018-09-12T20:16:31.115Z,10.47
2018-09-12T20:18:59.711Z,12.50
2018-09-12T20:21:28.291Z,16.13
2018-09-12T20:23:56.980Z,12.83
2018-09-12T20:26:25.427Z,12.13
2018-09-12T20:28:54.284Z,14.30
2018-09-12T20:31:22.828Z,11.17
2018-09-12T20:33:51.368Z,15.90
2018-09-12T20:36:19.979Z,17.43
2018-09-12T20:38:48.540Z,13.87
2018-09-12T20:41:17.111Z,8.80
2018-09-12T20:43:45.787Z,8.50
2018-09-12T20:46:14.344Z,10.63
2018-09-12T20:48:42.957Z,14.20
2018-09-12T20:51:11.816Z,12.70
2018-09-12T20:53:40.381Z,10.13
2018-09-12T20:56:09.101Z,17.53
2018-09-12T20:58:37.704Z,13.63
2018-09-12T21:01:06.379Z,13.33
2018-09-12T21:03:34.930Z,17.97
2018-09-12T21:06:04.527Z,18.10
2018-09-12T21:08:33.099Z,13.57
2018-09-12T21:11:01.675Z,11.80
2018-09-12T21:13:30.252Z,12.50
2018-09-12T21:15:58.807Z,12.10
2018-09-12T21:18:27.376Z,25.90
2018-09-12T21:20:55.995Z,16.33
2018-09-12T21:23:24.557Z,12.87
2018-09-12T21:25:53.115Z,12.77
2018-09-12T21:28:21.787Z,14.10
2018-09-12T21:30:50.388Z,15.27
2018-09-12T21:33:19.023Z,14.60
2018-09-12T21:35:48.052Z,14.90
2018-09-12T21:38:16.631Z,22.70
2018-09-12T21:40:45.285Z,15.77
2018-09-12T21:43:14.227Z,13.90
2018-09-12T21:45:42.799Z,18.60
2018-09-12T21:48:11.359Z,21.30
2018-09-12T21:50:39.951Z,13.53
2018-09-12T21:53:08.499Z,14.10
2018-09-12T21:55:37.088Z,15.27
2018-09-12T21:58:05.967Z,17.90
2018-09-12T22:00:34.571Z,14.30
2018-09-12T22:03:03.154Z,17.97
2018-09-12T22:05:31.734Z,19.43
2018-09-12T22:08:00.342Z,18.67
2018-09-12T22:10:28.880Z,19.03
2018-09-12T22:12:57.483Z,17.83
2018-09-12T22:15:26.042Z,17.13
2018-09-12T22:17:54.588Z,11.77
2018-09-12T22:20:23.594Z,19.90
2018-09-12T22:22:52.180Z,17.27
2018-09-12T22:25:20.742Z,15.13
2018-09-12T22:27:49.498Z,18.23
2018-09-12T22:30:18.056Z,17.33
2018-09-12T22:32:46.636Z,17.97
2018-09-12T22:35:15.624Z,18.47
2018-09-12T22:37:44.619Z,15.17
2018-09-12T22:40:13.264Z,19.80
2018-09-12T22:42:41.855Z,14.10
2018-09-12T22:45:10.427Z,15.40
2018-09-12T22:47:39.007Z,16.73
2018-09-12T22:50:07.771Z,25.97
2018-09-12T22:52:36.327Z,16.37
2018-09-12T22:55:04.960Z,24.20
2018-09-12T22:57:33.631Z,14.70
2018-09-12T23:00:02.187Z,21.87
2018-09-12T23:02:30.739Z,20.60
2018-09-12T23:04:59.369Z,15.57
2018-09-12T23:07:27.919Z,13.67
2018-09-12T23:09:56.484Z,17.53
2018-09-12T23:12:25.144Z,13.37
2018-09-12T23:14:53.707Z,17.97
2018-09-12T23:17:22.259Z,14.60
2018-09-12T23:19:50.963Z,14.53
2018-09-12T23:22:19.522Z,15.10
2018-09-12T23:24:48.070Z,10.57
2018-09-12T23:27:16.647Z,15.13
2018-09-12T23:29:45.204Z,16.80
2018-09-12T23:32:13.759Z,19.43
2018-09-12T23:34:42.439Z,13.77
2018-09-12T23:37:10.993Z,15.47
2018-09-12T23:39:39.544Z,11.20
2018-09-12T23:42:08.218Z,11.63
2018-09-12T23:44:36.764Z,9.67
2018-09-12T23:47:05.323Z,12.00
2018-09-12T23:49:33.905Z,13.37
2018-09-12T23:52:02.533Z,14.83
2018-09-12T23:54:31.167Z,14.93
2018-09-12T23:56:59.968Z,10.37
2018-09-12T23:59:28.524Z,16.37
